createdAt,value
2022-11-29T00:01:05.109Z,2.79
2022-11-29T00:03:31.899Z,2.91
2022-11-29T00:06:04.486Z,2.89
2022-11-29T00:08:31.178Z,2.97
2022-11-29T00:10:57.857Z,2.97
2022-11-29T00:13:24.580Z,2.93
2022-11-29T00:15:51.192Z,2.96
2022-11-29T00:18:17.875Z,2.86
2022-11-29T00:20:44.545Z,2.79
2022-11-29T00:23:11.509Z,2.83
2022-11-29T00:25:38.716Z,2.94
2022-11-29T00:28:05.379Z,2.77
2022-11-29T00:30:32.036Z,2.91
2022-11-29T00:32:58.843Z,2.98
2022-11-29T00:35:25.519Z,2.81
2022-11-29T00:37:52.133Z,2.94
2022-11-29T00:40:18.809Z,2.98
2022-11-29T00:42:45.389Z,2.92
2022-11-29T00:45:12.255Z,2.98
2022-11-29T00:47:38.845Z,2.93
2022-11-29T00:50:06.503Z,2.94
2022-11-29T00:52:33.229Z,2.88
2022-11-29T00:54:59.834Z,2.95
2022-11-29T00:57:26.497Z,2.97
2022-11-29T00:59:53.120Z,2.97
2022-11-29T01:02:19.874Z,2.92
2022-11-29T01:04:46.882Z,2.85
2022-11-29T01:07:13.793Z,2.87
2022-11-29T01:09:40.507Z,2.81
2022-11-29T01:12:07.415Z,2.87
2022-11-29T01:14:34.074Z,2.84
2022-11-29T01:17:00.705Z,2.88
2022-11-29T01:19:27.387Z,2.90
2022-11-29T01:21:54.330Z,2.86
2022-11-29T01:24:22.345Z,2.88
2022-11-29T01:26:49.023Z,2.91
2022-11-29T01:29:15.781Z,2.95
2022-11-29T01:31:42.432Z,2.88
2022-11-29T01:34:10.635Z,3.00
2022-11-29T01:36:37.350Z,2.84
2022-11-29T01:39:04.677Z,2.86
2022-11-29T01:41:32.655Z,2.89
2022-11-29T01:44:07.142Z,2.90
2022-11-29T01:46:38.538Z,2.99
2022-11-29T01:49:16.184Z,2.95
2022-11-29T01:51:45.725Z,2.94
2022-11-29T01:54:12.457Z,2.86
2022-11-29T01:56:39.161Z,2.86
2022-11-29T01:59:10.673Z,2.90
2022-11-29T02:01:37.385Z,2.83
2022-11-29T02:04:04.191Z,2.91
2022-11-29T02:06:30.846Z,2.87
2022-11-29T02:08:57.616Z,3.01
2022-11-29T02:11:39.454Z,2.89
2022-11-29T02:14:38.508Z,2.91
2022-11-29T02:17:16.670Z,3.16
2022-11-29T02:20:01.983Z,2.95
2022-11-29T02:22:46.811Z,2.89
2022-11-29T02:25:13.314Z,2.87
2022-11-29T02:28:09.413Z,2.88
2022-11-29T02:30:44.890Z,2.81
2022-11-29T02:33:35.773Z,2.78
2022-11-29T02:36:35.901Z,2.85
2022-11-29T02:39:36.261Z,2.81
2022-11-29T02:42:18.352Z,2.89
2022-11-29T02:45:02.550Z,2.95
2022-11-29T02:48:08.687Z,3.06
2022-11-29T02:50:44.000Z,2.81
2022-11-29T02:53:33.321Z,2.89
2022-11-29T02:56:09.030Z,2.77
2022-11-29T02:58:48.575Z,2.85
2022-11-29T03:01:23.716Z,2.80
2022-11-29T03:04:08.989Z,2.88
2022-11-29T03:06:50.757Z,2.93
2022-11-29T03:09:55.616Z,2.69
2022-11-29T03:12:40.080Z,2.82
2022-11-29T03:15:33.346Z,2.81
2022-11-29T03:18:10.996Z,2.96
2022-11-29T03:20:49.749Z,2.99
2022-11-29T03:23:31.234Z,3.00
2022-11-29T03:26:04.734Z,2.98
2022-11-29T03:28:37.701Z,2.96
2022-11-29T03:31:20.893Z,2.90
2022-11-29T03:34:15.112Z,3.06
2022-11-29T03:37:07.094Z,2.95
2022-11-29T03:39:45.559Z,2.92
2022-11-29T03:42:16.216Z,2.86
2022-11-29T03:44:51.313Z,2.81
2022-11-29T03:47:22.087Z,2.90
2022-11-29T03:49:52.682Z,2.88
2022-11-29T03:52:38.142Z,2.91
2022-11-29T03:55:45.373Z,2.91
2022-11-29T03:58:25.074Z,2.97
2022-11-29T04:01:16.179Z,2.92
2022-11-29T04:04:21.041Z,2.81
2022-11-29T04:06:59.669Z,2.83
2022-11-29T04:09:33.821Z,2.89
2022-11-29T04:12:25.145Z,2.83
2022-11-29T04:15:17.575Z,2.89
2022-11-29T04:18:02.840Z,2.92
2022-11-29T04:21:10.289Z,2.90
2022-11-29T04:24:04.708Z,2.97
2022-11-29T04:26:35.183Z,2.95
2022-11-29T04:29:08.119Z,2.94
2022-11-29T04:31:47.190Z,3.03
2022-11-29T04:35:05.111Z,2.92
2022-11-29T04:37:59.531Z,2.82
2022-11-29T04:40:41.155Z,2.73
2022-11-29T04:43:15.747Z,2.71
2022-11-29T04:46:27.736Z,2.97
2022-11-29T04:49:09.632Z,2.87
2022-11-29T04:52:03.834Z,2.88
2022-11-29T04:54:35.293Z,2.79
2022-11-29T04:57:04.695Z,2.84
2022-11-29T05:00:00.103Z,2.85
2022-11-29T05:02:41.875Z,2.86
2022-11-29T05:05:21.803Z,2.83
2022-11-29T05:07:52.522Z,2.78
2022-11-29T05:10:23.021Z,2.90
2022-11-29T05:13:12.577Z,2.86
2022-11-29T05:16:00.638Z,2.88
2022-11-29T05:18:55.079Z,2.97
2022-11-29T05:21:33.649Z,3.05
2022-11-29T05:24:17.638Z,2.98
2022-11-29T05:26:57.588Z,2.89
2022-11-29T05:29:27.261Z,3.02
2022-11-29T05:32:22.171Z,3.00
2022-11-29T05:35:27.150Z,2.94
2022-11-29T05:37:55.135Z,2.82
2022-11-29T05:40:43.475Z,2.89
2022-11-29T05:43:15.454Z,2.94
2022-11-29T05:46:00.321Z,2.95
2022-11-29T05:48:37.518Z,2.99
2022-11-29T05:51:04.136Z,3.08
2022-11-29T05:54:14.910Z,2.99
2022-11-29T05:57:03.399Z,3.04
2022-11-29T05:59:30.386Z,3.00
2022-11-29T06:02:23.884Z,3.07
2022-11-29T06:05:28.616Z,3.13
2022-11-29T06:08:04.380Z,3.19
2022-11-29T06:10:33.037Z,3.20
2022-11-29T06:13:38.369Z,3.29
2022-11-29T06:16:26.084Z,3.30
2022-11-29T06:19:20.205Z,3.38
2022-11-29T06:22:01.855Z,3.32
2022-11-29T06:24:53.514Z,3.27
2022-11-29T06:27:21.887Z,3.40
2022-11-29T06:30:06.991Z,3.26
2022-11-29T06:33:06.311Z,3.44
2022-11-29T06:35:59.649Z,3.48
2022-11-29T06:38:27.960Z,3.36
2022-11-29T06:41:01.376Z,3.32
2022-11-29T06:43:28.815Z,3.28
2022-11-29T06:46:18.601Z,3.24
2022-11-29T06:49:06.876Z,3.26
2022-11-29T06:51:36.551Z,3.45
2022-11-29T06:54:30.140Z,3.33
2022-11-29T06:57:08.884Z,3.39
2022-11-29T07:00:03.801Z,3.31
2022-11-29T07:02:52.428Z,3.25
2022-11-29T07:05:22.063Z,3.35
2022-11-29T07:07:49.003Z,3.24
2022-11-29T07:10:19.323Z,3.29
2022-11-29T07:12:46.636Z,3.38
2022-11-29T07:15:15.739Z,3.39
2022-11-29T07:17:54.261Z,3.31
2022-11-29T07:20:48.740Z,3.44
2022-11-29T07:23:38.579Z,3.39
2022-11-29T07:26:19.424Z,3.31
2022-11-29T07:29:04.778Z,3.40
2022-11-29T07:31:40.101Z,3.44
2022-11-29T07:34:44.660Z,3.40
2022-11-29T07:37:23.435Z,3.30
2022-11-29T07:40:11.868Z,3.23
2022-11-29T07:42:50.629Z,3.45
2022-11-29T07:45:21.625Z,3.43
2022-11-29T07:47:48.838Z,3.37
2022-11-29T07:50:15.810Z,3.31
2022-11-29T07:52:42.526Z,3.49
2022-11-29T07:55:18.877Z,3.71
2022-11-29T07:57:46.173Z,3.59
2022-11-29T08:00:13.925Z,3.62
2022-11-29T08:02:40.759Z,3.56
2022-11-29T08:05:08.089Z,3.72
2022-11-29T08:07:35.648Z,3.45
2022-11-29T08:10:02.815Z,3.56
2022-11-29T08:12:29.550Z,3.61
2022-11-29T08:14:56.228Z,3.74
2022-11-29T08:17:22.944Z,3.77
2022-11-29T08:19:49.550Z,3.57
2022-11-29T08:22:16.326Z,3.50
2022-11-29T08:24:43.345Z,3.56
2022-11-29T08:27:10.197Z,3.72
2022-11-29T08:29:36.990Z,3.90
2022-11-29T08:32:03.814Z,4.01
2022-11-29T08:34:31.842Z,4.04
2022-11-29T08:36:58.636Z,3.80
2022-11-29T08:39:25.319Z,3.96
2022-11-29T08:41:51.993Z,3.92
2022-11-29T08:44:18.690Z,3.95
2022-11-29T08:47:03.952Z,4.07
2022-11-29T08:49:30.635Z,4.12
2022-11-29T08:52:17.210Z,4.05
2022-11-29T08:54:44.315Z,4.04
2022-11-29T08:57:38.514Z,4.14
2022-11-29T08:59:57.979Z,4.13
2022-11-29T09:02:24.678Z,4.13
2022-11-29T09:04:51.340Z,4.27
2022-11-29T09:07:18.103Z,4.39
2022-11-29T09:09:44.724Z,4.32
2022-11-29T09:12:11.335Z,4.38
2022-11-29T09:14:38.011Z,4.52
2022-11-29T09:17:04.721Z,4.26
2022-11-29T09:19:31.349Z,4.43
2022-11-29T09:21:57.944Z,4.37
2022-11-29T09:24:24.694Z,4.52
2022-11-29T09:26:51.478Z,4.37
2022-11-29T09:29:18.156Z,4.47
2022-11-29T09:31:47.534Z,4.53
2022-11-29T09:34:15.290Z,4.37
2022-11-29T09:36:44.037Z,4.44
2022-11-29T09:39:12.497Z,4.64
2022-11-29T09:41:47.007Z,4.54
2022-11-29T09:44:36.569Z,4.37
2022-11-29T09:47:26.219Z,4.31
2022-11-29T09:49:59.672Z,4.61
2022-11-29T09:52:29.280Z,4.63
2022-11-29T09:55:33.302Z,4.56
2022-11-29T09:58:00.079Z,4.62
2022-11-29T10:00:26.707Z,4.47
2022-11-29T10:02:56.764Z,4.39
2022-11-29T10:05:30.096Z,4.40
2022-11-29T10:08:00.442Z,4.48
2022-11-29T10:10:44.728Z,4.52
2022-11-29T10:13:21.609Z,4.58
2022-11-29T10:15:50.563Z,4.59
2022-11-29T10:18:21.813Z,4.34
2022-11-29T10:20:49.737Z,4.26
2022-11-29T10:23:22.243Z,4.48
2022-11-29T10:25:58.717Z,4.21
2022-11-29T10:28:27.438Z,4.35
2022-11-29T10:30:54.742Z,4.41
2022-11-29T10:33:30.112Z,4.17
2022-11-29T10:35:59.319Z,4.72
2022-11-29T10:38:31.279Z,4.82
2022-11-29T10:41:03.158Z,4.76
2022-11-29T10:43:30.401Z,4.85
2022-11-29T10:45:57.372Z,4.94
2022-11-29T10:48:27.452Z,4.82
2022-11-29T10:50:54.222Z,4.54
2022-11-29T10:53:30.786Z,4.68
2022-11-29T10:55:57.362Z,4.82
2022-11-29T10:58:29.031Z,5.00
2022-11-29T11:01:08.062Z,4.74
2022-11-29T11:03:41.462Z,4.80
2022-11-29T11:06:18.848Z,4.94
2022-11-29T11:08:52.118Z,4.86
2022-11-29T11:11:29.135Z,5.13
2022-11-29T11:14:26.136Z,4.94
2022-11-29T11:16:54.032Z,4.48
2022-11-29T11:19:31.735Z,4.58
2022-11-29T11:21:59.582Z,4.73
2022-11-29T11:24:44.640Z,4.79
2022-11-29T11:27:11.568Z,4.82
2022-11-29T11:29:42.395Z,4.51
2022-11-29T11:32:19.303Z,4.58
2022-11-29T11:34:56.961Z,4.49
2022-11-29T11:37:33.346Z,4.66
2022-11-29T11:40:01.520Z,4.88
2022-11-29T11:42:38.356Z,4.92
2022-11-29T11:45:11.177Z,4.71
2022-11-29T11:47:45.033Z,4.73
2022-11-29T11:50:13.662Z,4.94
2022-11-29T11:52:50.815Z,4.73
2022-11-29T11:55:29.830Z,4.46
2022-11-29T11:58:10.164Z,4.56
2022-11-29T12:01:04.663Z,4.21
2022-11-29T12:03:39.963Z,4.57
2022-11-29T12:06:16.810Z,4.43
2022-11-29T12:08:43.623Z,4.53
2022-11-29T12:11:11.559Z,4.42
2022-11-29T12:13:40.139Z,4.39
2022-11-29T12:16:19.242Z,4.76
2022-11-29T12:18:50.162Z,4.72
2022-11-29T12:21:18.472Z,4.81
2022-11-29T12:24:22.602Z,4.71
2022-11-29T12:26:57.019Z,4.61
2022-11-29T12:29:24.825Z,4.48
2022-11-29T12:31:55.252Z,4.45
2022-11-29T12:34:22.791Z,4.61
2022-11-29T12:37:04.840Z,4.80
2022-11-29T12:39:53.600Z,4.83
2022-11-29T12:42:36.036Z,4.82
2022-11-29T12:45:20.797Z,4.71
2022-11-29T12:48:11.058Z,4.85
2022-11-29T12:50:39.682Z,4.72
2022-11-29T12:53:44.223Z,4.64
2022-11-29T12:56:27.267Z,4.78
2022-11-29T12:59:02.481Z,4.94
2022-11-29T13:01:51.240Z,5.00
2022-11-29T13:04:41.129Z,5.17
2022-11-29T13:07:26.583Z,4.99
2022-11-29T13:10:16.344Z,4.94
2022-11-29T13:12:47.825Z,4.93
2022-11-29T13:15:19.499Z,4.91
2022-11-29T13:18:24.693Z,5.17
2022-11-29T13:21:00.903Z,5.16
2022-11-29T13:23:46.235Z,5.17
2022-11-29T13:26:19.525Z,5.02
2022-11-29T13:28:49.298Z,4.95
2022-11-29T13:31:18.606Z,4.99
2022-11-29T13:33:54.451Z,5.12
2022-11-29T13:36:45.759Z,5.10
2022-11-29T13:39:41.450Z,5.11
2022-11-29T13:42:14.045Z,5.08
2022-11-29T13:44:46.711Z,5.03
2022-11-29T13:47:14.943Z,5.11
2022-11-29T13:49:53.667Z,5.06
2022-11-29T13:52:40.610Z,5.08
2022-11-29T13:55:14.562Z,5.04
2022-11-29T13:58:15.541Z,4.95
2022-11-29T14:00:43.982Z,4.84
2022-11-29T14:03:28.953Z,4.68
2022-11-29T14:06:34.290Z,4.85
2022-11-29T14:09:22.628Z,4.97
2022-11-29T14:11:54.129Z,5.05
2022-11-29T14:14:48.707Z,4.86
2022-11-29T14:17:37.603Z,4.86
2022-11-29T14:20:39.585Z,4.85
2022-11-29T14:23:06.410Z,4.86
2022-11-29T14:28:22.991Z,4.90
2022-11-29T14:30:50.401Z,4.79
2022-11-29T14:33:23.097Z,4.90
2022-11-29T14:35:56.768Z,4.87
2022-11-29T14:38:32.218Z,4.77
2022-11-29T14:41:00.403Z,4.80
2022-11-29T14:43:33.755Z,4.84
2022-11-29T14:46:15.732Z,4.73
2022-11-29T14:48:55.458Z,4.71
2022-11-29T14:51:26.579Z,4.76
2022-11-29T14:54:12.259Z,4.71
2022-11-29T14:56:42.512Z,4.72
2022-11-29T14:59:51.464Z,4.86
2022-11-29T15:02:38.669Z,4.79
2022-11-29T15:05:18.798Z,5.00
2022-11-29T15:07:57.344Z,4.88
2022-11-29T15:10:25.865Z,4.79
2022-11-29T15:12:52.560Z,4.69
2022-11-29T15:15:27.095Z,4.80
2022-11-29T15:18:02.805Z,4.80
2022-11-29T15:20:58.508Z,4.71
2022-11-29T15:23:25.144Z,4.82
2022-11-29T15:25:52.927Z,4.66
2022-11-29T15:28:29.270Z,4.68
2022-11-29T15:31:06.710Z,4.69
2022-11-29T15:33:34.187Z,4.56
2022-11-29T15:36:08.437Z,4.71
2022-11-29T15:38:49.090Z,4.74
2022-11-29T15:41:35.356Z,4.77
2022-11-29T15:44:05.799Z,4.81
2022-11-29T15:46:34.114Z,4.71
2022-11-29T15:49:26.248Z,4.72
2022-11-29T15:52:08.423Z,4.73
2022-11-29T15:55:02.329Z,4.74
2022-11-29T15:57:46.746Z,4.79
2022-11-29T16:00:24.230Z,4.67
2022-11-29T16:03:01.431Z,4.69
2022-11-29T16:05:31.941Z,4.76
2022-11-29T16:08:05.815Z,4.72
2022-11-29T16:10:36.169Z,4.74
2022-11-29T16:13:07.892Z,4.88
2022-11-29T16:15:37.670Z,4.73
2022-11-29T16:18:14.887Z,4.73
2022-11-29T16:20:41.562Z,4.70
2022-11-29T16:23:08.209Z,4.66
2022-11-29T16:25:37.773Z,4.69
2022-11-29T16:28:05.993Z,4.91
2022-11-29T16:30:32.742Z,4.81
2022-11-29T16:32:59.669Z,4.96
2022-11-29T16:35:29.912Z,4.91
2022-11-29T16:37:56.505Z,4.78
2022-11-29T16:40:30.280Z,4.74
2022-11-29T16:43:02.987Z,4.56
2022-11-29T16:45:39.551Z,4.61
2022-11-29T16:48:30.157Z,4.77
2022-11-29T16:51:14.942Z,4.88
2022-11-29T16:53:42.434Z,4.70
2022-11-29T16:56:12.847Z,4.78
2022-11-29T16:59:20.677Z,4.76
2022-11-29T17:01:30.853Z,4.49
2022-11-29T17:03:58.233Z,4.57
2022-11-29T17:06:25.002Z,4.79
2022-11-29T17:08:52.149Z,4.80
2022-11-29T17:11:18.930Z,4.82
2022-11-29T17:13:46.373Z,4.72
2022-11-29T17:16:17.651Z,4.65
2022-11-29T17:18:45.224Z,4.77
2022-11-29T17:21:25.739Z,4.79
2022-11-29T17:23:52.536Z,4.74
2022-11-29T17:26:19.648Z,4.66
2022-11-29T17:28:47.644Z,4.89
2022-11-29T17:31:21.676Z,4.71
2022-11-29T17:33:48.301Z,4.78
2022-11-29T17:36:16.710Z,4.68
2022-11-29T17:38:44.114Z,4.76
2022-11-29T17:41:11.658Z,4.76
2022-11-29T17:43:38.438Z,4.81
2022-11-29T17:46:09.736Z,4.84
2022-11-29T17:48:36.686Z,4.78
2022-11-29T17:51:06.929Z,4.71
2022-11-29T17:53:40.094Z,4.71
2022-11-29T17:56:14.169Z,4.71
2022-11-29T17:58:40.839Z,4.86
2022-11-29T18:01:12.522Z,4.96
2022-11-29T18:03:40.437Z,4.81
2022-11-29T18:06:11.205Z,4.74
2022-11-29T18:08:39.123Z,4.78
2022-11-29T18:11:46.867Z,4.78
2022-11-29T18:14:16.006Z,4.73
2022-11-29T18:16:43.005Z,4.73
2022-11-29T18:19:12.208Z,4.72
2022-11-29T18:21:39.029Z,4.81
2022-11-29T18:24:06.728Z,4.97
2022-11-29T18:26:33.908Z,4.98
2022-11-29T18:29:00.648Z,4.89
2022-11-29T18:31:31.887Z,4.92
2022-11-29T18:34:00.189Z,4.79
2022-11-29T18:36:31.574Z,4.83
2022-11-29T18:38:59.897Z,4.93
2022-11-29T18:41:28.266Z,4.96
2022-11-29T18:44:02.216Z,4.84
2022-11-29T18:46:32.966Z,4.53
2022-11-29T18:49:01.103Z,4.66
2022-11-29T18:51:28.659Z,4.76
2022-11-29T18:53:55.437Z,4.83
2022-11-29T18:56:23.189Z,4.80
2022-11-29T18:59:00.470Z,4.79
2022-11-29T19:01:28.853Z,4.61
2022-11-29T19:03:56.973Z,4.88
2022-11-29T19:06:25.323Z,4.79
2022-11-29T19:08:52.377Z,4.73
2022-11-29T19:11:20.787Z,4.83
2022-11-29T19:13:47.514Z,4.88
2022-11-29T19:16:16.464Z,4.78
2022-11-29T19:18:43.332Z,4.78
2022-11-29T19:21:11.890Z,4.80
2022-11-29T19:23:38.576Z,5.01
2022-11-29T19:26:14.792Z,4.77
2022-11-29T19:28:42.665Z,4.80
2022-11-29T19:31:09.692Z,4.97
2022-11-29T19:33:37.021Z,4.93
2022-11-29T19:36:24.492Z,4.93
2022-11-29T19:38:53.824Z,4.93
2022-11-29T19:41:26.160Z,4.83
2022-11-29T19:43:52.891Z,4.72
2022-11-29T19:46:26.613Z,4.83
2022-11-29T19:48:54.508Z,4.85
2022-11-29T19:51:21.379Z,4.97
2022-11-29T19:53:48.107Z,4.90
2022-11-29T19:56:15.846Z,4.85
2022-11-29T19:58:43.030Z,4.88
2022-11-29T20:01:11.839Z,4.88
2022-11-29T20:03:38.689Z,5.05
2022-11-29T20:06:05.333Z,4.93
2022-11-29T20:08:32.297Z,4.79
2022-11-29T20:11:12.624Z,4.66
2022-11-29T20:13:39.557Z,4.68
2022-11-29T20:16:09.653Z,4.84
2022-11-29T20:18:37.626Z,4.82
2022-11-29T20:21:14.581Z,4.85
2022-11-29T20:23:41.585Z,4.78
2022-11-29T20:26:16.056Z,4.97
2022-11-29T20:28:43.202Z,4.99
2022-11-29T20:31:13.127Z,4.90
2022-11-29T20:33:40.899Z,5.06
2022-11-29T20:36:17.816Z,5.00
2022-11-29T20:38:53.415Z,4.78
2022-11-29T20:41:40.678Z,4.78
2022-11-29T20:44:08.303Z,4.81
2022-11-29T20:46:35.121Z,4.91
2022-11-29T20:49:06.524Z,4.84
2022-11-29T20:51:58.554Z,4.86
2022-11-29T20:54:25.205Z,4.86
2022-11-29T20:56:51.909Z,4.77
2022-11-29T20:59:18.538Z,4.96
2022-11-29T21:01:45.250Z,4.91
2022-11-29T21:04:11.938Z,4.95
2022-11-29T21:06:38.920Z,4.96
2022-11-29T21:09:05.876Z,4.78
2022-11-29T21:11:32.780Z,4.62
2022-11-29T21:14:03.473Z,4.67
2022-11-29T21:16:31.278Z,4.74
2022-11-29T21:19:00.111Z,4.82
2022-11-29T21:21:52.941Z,4.85
2022-11-29T21:24:22.544Z,4.92
2022-11-29T21:26:52.508Z,4.85
2022-11-29T21:29:20.489Z,5.15
2022-11-29T21:31:48.421Z,4.99
2022-11-29T21:34:15.174Z,4.80
2022-11-29T21:36:41.914Z,4.84
2022-11-29T21:39:13.275Z,4.84
2022-11-29T21:41:39.883Z,4.82
2022-11-29T21:44:07.922Z,5.11
2022-11-29T21:46:35.298Z,4.97
2022-11-29T21:49:02.022Z,4.97
2022-11-29T21:51:28.671Z,4.98
2022-11-29T21:53:55.264Z,5.29
2022-11-29T21:56:22.106Z,5.37
2022-11-29T21:58:48.764Z,4.93
2022-11-29T22:01:17.262Z,4.77
2022-11-29T22:03:44.016Z,4.82
2022-11-29T22:06:12.650Z,4.80
2022-11-29T22:08:40.501Z,4.71
2022-11-29T22:11:09.614Z,4.94
2022-11-29T22:13:37.076Z,5.04
2022-11-29T22:16:10.471Z,4.96
2022-11-29T22:18:37.216Z,4.86
2022-11-29T22:21:05.538Z,4.48
2022-11-29T22:23:32.423Z,4.71
2022-11-29T22:26:06.509Z,4.45
2022-11-29T22:28:33.324Z,4.40
2022-11-29T22:31:03.721Z,4.80
2022-11-29T22:33:30.645Z,4.86
2022-11-29T22:35:57.394Z,4.28
2022-11-29T22:38:24.107Z,4.29
2022-11-29T22:40:50.824Z,4.59
2022-11-29T22:43:17.553Z,4.84
2022-11-29T22:45:44.138Z,4.96
2022-11-29T22:48:10.830Z,5.07
2022-11-29T22:50:37.540Z,5.06
2022-11-29T22:53:04.138Z,5.21
2022-11-29T22:55:30.825Z,4.97
2022-11-29T22:57:57.452Z,4.70
2022-11-29T23:00:24.112Z,4.95
2022-11-29T23:02:50.803Z,5.00
2022-11-29T23:05:17.433Z,5.11
2022-11-29T23:07:46.712Z,5.20
2022-11-29T23:10:13.388Z,5.01
2022-11-29T23:12:40.031Z,5.09
2022-11-29T23:15:06.874Z,4.91
2022-11-29T23:17:33.500Z,4.89
2022-11-29T23:20:00.133Z,5.02
2022-11-29T23:22:26.771Z,4.87
2022-11-29T23:24:53.338Z,5.00
2022-11-29T23:27:19.929Z,5.11
2022-11-29T23:29:46.526Z,4.92
2022-11-29T23:32:13.202Z,4.85
2022-11-29T23:34:39.837Z,5.09
2022-11-29T23:37:06.474Z,4.97
2022-11-29T23:39:33.248Z,5.14
2022-11-29T23:41:59.849Z,5.03
2022-11-29T23:44:26.490Z,4.97
2022-11-29T23:46:53.179Z,4.87
2022-11-29T23:49:19.799Z,4.86
2022-11-29T23:51:46.406Z,4.88
2022-11-29T23:54:13.086Z,4.80
2022-11-29T23:56:39.714Z,4.94
2022-11-29T23:59:06.498Z,4.99
